createdAt,value
2022-12-18T00:00:18.418Z,-4.0271
2022-12-18T00:01:26.158Z,-4.03717
2022-12-18T00:02:35.865Z,-4.067383
2022-12-18T00:03:46.009Z,-4.057312
2022-12-18T00:04:55.175Z,-4.057312
2022-12-18T00:06:04.828Z,-4.097595
2022-12-18T00:07:12.507Z,-4.057312
2022-12-18T00:08:22.189Z,-4.03717
2022-12-18T00:09:39.941Z,-4.057312
2022-12-18T00:10:41.534Z,-4.057312
2022-12-18T00:11:51.214Z,-4.087524
2022-12-18T00:13:02.619Z,-4.067383
2022-12-18T00:14:11.579Z,-4.097595
2022-12-18T00:15:21.263Z,-4.087524
2022-12-18T00:16:31.196Z,-4.067383
2022-12-18T00:17:39.621Z,-4.127808
2022-12-18T00:18:49.281Z,-4.168091
2022-12-18T00:19:57.996Z,-4.168091
2022-12-18T00:21:07.702Z,-4.168091
2022-12-18T00:22:17.351Z,-4.15802
2022-12-18T00:23:27.013Z,-4.137878
2022-12-18T00:24:36.703Z,-4.15802
2022-12-18T00:25:45.365Z,-4.117737
2022-12-18T00:26:53.166Z,-4.087524
2022-12-18T00:28:02.844Z,-4.097595
2022-12-18T00:29:11.515Z,-4.127808
2022-12-18T00:30:20.266Z,-4.137878
2022-12-18T00:31:29.973Z,-4.168091
2022-12-18T00:32:38.620Z,-4.198303
2022-12-18T00:33:48.340Z,-4.168091
2022-12-18T00:34:57.967Z,-4.137878
2022-12-18T00:36:05.625Z,-4.137878
2022-12-18T00:37:19.822Z,-4.127808
2022-12-18T00:38:25.057Z,-4.168091
2022-12-18T00:39:34.778Z,-4.168091
2022-12-18T00:40:44.456Z,-4.198303
2022-12-18T00:41:52.181Z,-4.218445
2022-12-18T00:43:01.848Z,-4.198303
2022-12-18T00:44:10.544Z,-4.198303
2022-12-18T00:45:19.214Z,-4.168091
2022-12-18T00:46:27.899Z,-4.137878
2022-12-18T00:47:37.572Z,-4.127808
2022-12-18T00:48:46.220Z,-4.127808
2022-12-18T00:49:54.904Z,-4.15802
2022-12-18T00:51:03.595Z,-4.15802
2022-12-18T00:52:13.507Z,-4.168091
2022-12-18T00:53:21.175Z,-4.168091
2022-12-18T00:54:30.865Z,-4.208374
2022-12-18T00:55:39.571Z,-4.218445
2022-12-18T00:56:49.561Z,-4.208374
2022-12-18T00:57:57.910Z,-4.218445
2022-12-18T00:59:05.578Z,-4.238586
2022-12-18T01:00:15.307Z,-4.238586
2022-12-18T01:01:25.107Z,-4.238586
2022-12-18T01:02:32.889Z,-4.248657
2022-12-18T01:03:42.410Z,-4.268799
2022-12-18T01:04:52.149Z,-4.248657
2022-12-18T01:05:58.812Z,-4.268799
2022-12-18T01:07:08.636Z,-4.248657
2022-12-18T01:08:16.305Z,-4.27887
2022-12-18T01:09:25.026Z,-4.299011
2022-12-18T01:10:35.705Z,-4.299011
2022-12-18T01:11:44.371Z,-4.268799
2022-12-18T01:12:54.097Z,-4.248657
2022-12-18T01:14:03.793Z,-4.208374
2022-12-18T01:15:11.449Z,-4.208374
2022-12-18T01:16:21.180Z,-4.218445
2022-12-18T01:17:28.807Z,-4.218445
2022-12-18T01:18:37.807Z,-4.248657
2022-12-18T01:19:47.462Z,-4.248657
2022-12-18T01:20:55.152Z,-4.268799
2022-12-18T01:22:04.828Z,-4.27887
2022-12-18T01:23:13.538Z,-4.299011
2022-12-18T01:24:22.215Z,-4.268799
2022-12-18T01:25:31.942Z,-4.268799
2022-12-18T01:26:39.619Z,-4.238586
2022-12-18T01:27:48.300Z,-4.208374
2022-12-18T01:28:57.999Z,-4.208374
2022-12-18T01:30:06.699Z,-4.208374
2022-12-18T01:31:16.400Z,-4.198303
2022-12-18T01:32:25.086Z,-4.208374
2022-12-18T01:33:33.829Z,-4.218445
2022-12-18T01:34:43.564Z,-4.238586
2022-12-18T01:35:53.276Z,-4.198303
2022-12-18T01:37:01.941Z,-4.15802
2022-12-18T01:38:11.657Z,-4.198303
2022-12-18T01:39:21.354Z,-4.198303
2022-12-18T01:40:31.036Z,-4.168091
2022-12-18T01:41:39.734Z,-4.168091
2022-12-18T01:42:47.420Z,-4.15802
2022-12-18T01:43:57.130Z,-4.127808
2022-12-18T01:45:04.775Z,-4.117737
2022-12-18T01:46:13.494Z,-4.117737
2022-12-18T01:47:22.156Z,-4.087524
2022-12-18T01:48:30.854Z,-4.087524
2022-12-18T01:49:40.515Z,-4.097595
2022-12-18T01:50:49.195Z,-4.067383
2022-12-18T01:51:57.865Z,-4.067383
2022-12-18T01:53:07.617Z,-4.087524
2022-12-18T01:54:15.337Z,-4.097595
2022-12-18T01:55:24.033Z,-4.117737
2022-12-18T01:56:33.726Z,-4.127808
2022-12-18T01:57:41.368Z,-4.137878
2022-12-18T01:58:51.087Z,-4.198303
2022-12-18T01:59:59.774Z,-4.238586
2022-12-18T02:01:09.523Z,-4.208374
2022-12-18T02:02:19.255Z,-4.137878
2022-12-18T02:03:27.898Z,-4.117737
2022-12-18T02:04:36.611Z,-4.087524
2022-12-18T02:05:47.311Z,-4.097595
2022-12-18T02:06:55.993Z,-4.117737
2022-12-18T02:08:05.649Z,-4.127808
2022-12-18T02:09:15.427Z,-4.127808
2022-12-18T02:10:25.168Z,-4.137878
2022-12-18T02:11:34.863Z,-4.097595
2022-12-18T02:12:42.644Z,-4.117737
2022-12-18T02:13:53.213Z,-4.097595
2022-12-18T02:15:02.876Z,-4.097595
2022-12-18T02:16:11.587Z,-4.137878
2022-12-18T02:17:21.268Z,-4.137878
2022-12-18T02:18:29.998Z,-4.127808
2022-12-18T02:19:37.664Z,-4.117737
2022-12-18T02:20:47.337Z,-4.117737
2022-12-18T02:21:56.047Z,-4.087524
2022-12-18T02:23:05.703Z,-4.067383
2022-12-18T02:24:15.393Z,-4.087524
2022-12-18T02:25:24.110Z,-4.117737
2022-12-18T02:26:32.772Z,-4.137878
2022-12-18T02:27:40.462Z,-4.127808
2022-12-18T02:28:49.312Z,-4.127808
2022-12-18T02:29:59.192Z,-4.087524
2022-12-18T02:31:08.646Z,-4.117737
2022-12-18T02:32:17.218Z,-4.137878
2022-12-18T02:33:26.914Z,-4.15802
2022-12-18T02:34:34.586Z,-4.208374
2022-12-18T02:35:44.240Z,-4.208374
2022-12-18T02:36:52.947Z,-4.198303
2022-12-18T02:38:00.631Z,-4.198303
2022-12-18T02:39:09.342Z,-4.168091
2022-12-18T02:40:18.006Z,-4.198303
2022-12-18T02:41:26.711Z,-4.168091
2022-12-18T02:42:36.399Z,-4.208374
2022-12-18T02:43:45.091Z,-4.218445
2022-12-18T02:44:54.897Z,-4.238586
2022-12-18T02:46:04.515Z,-4.198303
2022-12-18T02:47:12.119Z,-4.208374
2022-12-18T02:48:21.786Z,-4.218445
2022-12-18T02:49:29.451Z,-4.238586
2022-12-18T02:50:39.186Z,-4.248657
2022-12-18T02:51:48.884Z,-4.208374
2022-12-18T02:52:57.608Z,-4.15802
2022-12-18T02:54:07.299Z,-4.137878
2022-12-18T02:55:16.034Z,-4.137878
2022-12-18T02:56:25.736Z,-4.127808
2022-12-18T02:57:34.391Z,-4.137878
2022-12-18T02:58:43.065Z,-4.117737
2022-12-18T02:59:52.739Z,-4.097595
2022-12-18T03:01:01.578Z,-4.097595
2022-12-18T03:02:11.379Z,-4.087524
2022-12-18T03:03:20.949Z,-4.097595
2022-12-18T03:04:28.578Z,-4.067383
2022-12-18T03:05:38.243Z,-4.057312
2022-12-18T03:06:46.927Z,-4.067383
2022-12-18T03:07:55.629Z,-4.087524
2022-12-18T03:09:05.320Z,-4.097595
2022-12-18T03:10:15.015Z,-4.127808
2022-12-18T03:11:23.696Z,-4.117737
2022-12-18T03:12:31.399Z,-4.097595
2022-12-18T03:13:39.419Z,-4.117737
2022-12-18T03:14:48.871Z,-4.067383
2022-12-18T03:15:58.554Z,-4.067383
2022-12-18T03:17:06.450Z,-4.057312
2022-12-18T03:18:15.926Z,-4.03717
2022-12-18T03:19:24.596Z,-4.057312
2022-12-18T03:20:33.269Z,-4.03717
2022-12-18T03:21:42.950Z,-4.0271
2022-12-18T03:22:51.614Z,-4.017029
2022-12-18T03:24:01.347Z,-4.03717
2022-12-18T03:25:11.062Z,-4.0271
2022-12-18T03:26:19.729Z,-4.0271
2022-12-18T03:27:29.421Z,-4.067383
2022-12-18T03:28:38.103Z,-4.067383
2022-12-18T03:29:46.844Z,-4.03717
2022-12-18T03:30:56.669Z,-4.03717
2022-12-18T03:32:06.250Z,-4.057312
2022-12-18T03:33:16.054Z,-4.03717
2022-12-18T03:34:25.629Z,-4.067383
2022-12-18T03:35:34.325Z,-4.087524
2022-12-18T03:36:44.043Z,-4.117737
2022-12-18T03:37:51.861Z,-4.117737
2022-12-18T03:39:01.552Z,-4.117737
2022-12-18T03:40:11.228Z,-4.097595
2022-12-18T03:41:19.897Z,-4.087524
2022-12-18T03:42:29.584Z,-4.097595
2022-12-18T03:43:39.576Z,-4.057312
2022-12-18T03:44:48.008Z,-4.057312
2022-12-18T03:45:57.771Z,-4.0271
2022-12-18T03:47:06.352Z,-4.087524
2022-12-18T03:48:16.048Z,-4.097595
2022-12-18T03:49:25.861Z,-4.117737
2022-12-18T03:50:35.435Z,-4.127808
2022-12-18T03:51:45.091Z,-4.168091
2022-12-18T03:52:54.797Z,-4.15802
2022-12-18T03:54:02.460Z,-4.15802
2022-12-18T03:55:12.177Z,-4.127808
2022-12-18T03:56:19.835Z,-4.117737
2022-12-18T03:57:28.567Z,-4.137878
2022-12-18T03:58:38.332Z,-4.168091
2022-12-18T03:59:47.046Z,-4.198303
2022-12-18T04:00:56.737Z,-4.137878
2022-12-18T04:02:05.591Z,-4.137878
2022-12-18T04:03:13.215Z,-4.097595
2022-12-18T04:04:23.811Z,-4.067383
2022-12-18T04:05:32.630Z,-4.067383
2022-12-18T04:06:42.303Z,-4.097595
2022-12-18T04:07:51.991Z,-4.087524
2022-12-18T04:08:59.661Z,-4.087524
2022-12-18T04:10:09.387Z,-4.067383
2022-12-18T04:11:18.083Z,-4.067383
2022-12-18T04:12:26.792Z,-4.057312
2022-12-18T04:13:36.760Z,-4.087524
2022-12-18T04:14:45.163Z,-4.087524
2022-12-18T04:15:53.878Z,-4.067383
2022-12-18T04:17:03.498Z,-4.067383
2022-12-18T04:18:11.172Z,-4.057312
2022-12-18T04:19:20.845Z,-4.057312
2022-12-18T04:20:29.534Z,-4.0271
2022-12-18T04:21:39.332Z,-4.0271
2022-12-18T04:22:48.930Z,-4.067383
2022-12-18T04:23:57.601Z,-4.097595
2022-12-18T04:25:06.294Z,-4.137878
2022-12-18T04:26:15.951Z,-4.137878
2022-12-18T04:27:24.644Z,-4.117737
2022-12-18T04:28:34.372Z,-4.117737
2022-12-18T04:29:43.082Z,-4.117737
2022-12-18T04:30:51.817Z,-4.097595
2022-12-18T04:32:00.501Z,-4.087524
2022-12-18T04:33:10.206Z,-4.087524
2022-12-18T04:34:18.897Z,-4.067383
2022-12-18T04:35:28.552Z,-4.097595
2022-12-18T04:36:37.279Z,-4.087524
2022-12-18T04:37:47.169Z,-4.117737
2022-12-18T04:38:56.785Z,-4.087524
2022-12-18T04:40:05.471Z,-4.097595
2022-12-18T04:41:15.151Z,-4.087524
2022-12-18T04:42:22.849Z,-4.067383
2022-12-18T04:43:31.491Z,-4.057312
2022-12-18T04:44:41.169Z,-4.057312
2022-12-18T04:45:48.860Z,-4.057312
2022-12-18T04:46:58.536Z,-4.057312
2022-12-18T04:48:07.220Z,-4.03717
2022-12-18T04:49:15.904Z,-4.0271
2022-12-18T04:50:25.574Z,-4.0271
2022-12-18T04:51:34.302Z,-3.986816
2022-12-18T04:52:44.020Z,-3.976746
2022-12-18T04:53:52.821Z,-3.986816
2022-12-18T04:55:02.382Z,-3.956604
2022-12-18T04:56:12.054Z,-3.976746
2022-12-18T04:57:20.770Z,-3.956604
2022-12-18T04:58:30.445Z,-3.956604
2022-12-18T04:59:39.124Z,-4.03717
2022-12-18T05:00:47.808Z,-4.057312
2022-12-18T05:01:57.644Z,-4.03717
2022-12-18T05:03:06.331Z,-4.067383
2022-12-18T05:04:16.095Z,-4.067383
2022-12-18T05:05:25.588Z,-4.057312
2022-12-18T05:06:33.259Z,-4.03717
2022-12-18T05:07:42.916Z,-4.03717
2022-12-18T05:08:51.623Z,-4.067383
2022-12-18T05:10:00.454Z,-4.067383
2022-12-18T05:11:11.011Z,-4.057312
2022-12-18T05:12:20.696Z,-4.0271
2022-12-18T05:13:29.331Z,-4.0271
2022-12-18T05:14:39.067Z,-4.017029
2022-12-18T05:15:46.800Z,-4.017029
2022-12-18T05:17:00.614Z,-4.0271
2022-12-18T05:18:06.097Z,-4.0271
2022-12-18T05:19:14.773Z,-4.017029
2022-12-18T05:20:24.549Z,-4.017029
2022-12-18T05:21:32.250Z,-4.0271
2022-12-18T05:22:40.920Z,-4.0271
2022-12-18T05:23:50.622Z,-4.017029
2022-12-18T05:24:59.313Z,-4.0271
2022-12-18T05:26:09.130Z,-3.986816
2022-12-18T05:27:18.697Z,-4.0271
2022-12-18T05:28:27.349Z,-4.0271
2022-12-18T05:29:37.044Z,-4.057312
2022-12-18T05:30:44.813Z,-4.057312
2022-12-18T05:31:54.607Z,-4.067383
2022-12-18T05:33:04.210Z,-4.087524
2022-12-18T05:34:12.881Z,-4.087524
2022-12-18T05:35:22.569Z,-4.087524
2022-12-18T05:36:31.259Z,-4.097595
2022-12-18T05:37:42.867Z,-4.03717
2022-12-18T05:38:48.639Z,-4.057312
2022-12-18T05:39:57.296Z,-4.017029
2022-12-18T05:41:03.958Z,-4.057312
2022-12-18T05:42:13.744Z,-4.087524
2022-12-18T05:43:23.300Z,-4.097595
2022-12-18T05:44:33.008Z,-4.097595
2022-12-18T05:45:41.685Z,-4.087524
2022-12-18T05:46:50.429Z,-4.097595
2022-12-18T05:48:00.120Z,-4.067383
2022-12-18T05:49:08.839Z,-4.057312
2022-12-18T05:50:17.616Z,-4.15802
2022-12-18T05:51:27.376Z,-4.198303
2022-12-18T05:52:35.065Z,-4.168091
2022-12-18T05:53:44.736Z,-4.168091
2022-12-18T05:54:52.429Z,-4.168091
2022-12-18T05:56:00.135Z,-4.27887
2022-12-18T05:57:09.808Z,-4.309082
2022-12-18T05:58:17.579Z,-4.27887
2022-12-18T05:59:27.155Z,-4.238586
2022-12-18T06:00:36.862Z,-4.198303
2022-12-18T06:01:44.664Z,-4.137878
2022-12-18T06:02:54.325Z,-4.137878
2022-12-18T06:04:03.963Z,-4.117737
2022-12-18T06:05:11.606Z,-4.097595
2022-12-18T06:06:21.300Z,-4.117737
2022-12-18T06:07:29.995Z,-4.127808
2022-12-18T06:08:44.436Z,-4.137878
2022-12-18T06:09:49.370Z,-4.15802
2022-12-18T06:10:57.036Z,-4.15802
2022-12-18T06:12:06.810Z,-4.168091
2022-12-18T06:13:15.489Z,-4.218445
2022-12-18T06:14:23.294Z,-4.208374
2022-12-18T06:15:32.895Z,-4.218445
2022-12-18T06:16:40.589Z,-4.268799
2022-12-18T06:17:50.302Z,-4.299011
2022-12-18T06:18:59.964Z,-4.127808
2022-12-18T06:20:07.651Z,-4.0271
2022-12-18T06:21:17.351Z,-3.976746
2022-12-18T06:22:27.090Z,-3.916321
2022-12-18T06:23:35.885Z,-3.986816
2022-12-18T06:24:45.569Z,-4.067383
2022-12-18T06:25:53.255Z,-4.087524
2022-12-18T06:27:01.964Z,-4.087524
2022-12-18T06:28:11.639Z,-4.087524
2022-12-18T06:29:19.324Z,-4.097595
2022-12-18T06:30:29.121Z,-4.097595
2022-12-18T06:31:38.778Z,-4.067383
2022-12-18T06:32:48.599Z,-4.097595
2022-12-18T06:33:57.117Z,-4.087524
2022-12-18T06:35:06.810Z,-4.087524
2022-12-18T06:36:16.487Z,-4.097595
2022-12-18T06:37:26.173Z,-4.03717
2022-12-18T06:38:32.831Z,-4.067383
2022-12-18T06:39:42.497Z,-4.03717
2022-12-18T06:40:51.204Z,-4.067383
2022-12-18T06:41:59.885Z,-4.087524
2022-12-18T06:43:09.579Z,-4.097595
2022-12-18T06:44:18.267Z,-4.127808
2022-12-18T06:45:27.030Z,-4.117737
2022-12-18T06:46:36.822Z,-4.097595
2022-12-18T06:47:46.350Z,-4.087524
2022-12-18T06:48:56.028Z,-4.097595
2022-12-18T06:50:04.729Z,-4.087524
2022-12-18T06:51:14.387Z,-4.087524
2022-12-18T06:52:23.109Z,-4.067383
2022-12-18T06:53:31.774Z,-4.087524
2022-12-18T06:54:41.440Z,-4.117737
2022-12-18T06:55:51.314Z,-4.238586
2022-12-18T06:57:00.015Z,-4.248657
2022-12-18T06:58:09.713Z,-4.27887
2022-12-18T06:59:18.404Z,-4.27887
2022-12-18T07:00:28.084Z,-4.268799
2022-12-18T07:01:36.854Z,-4.309082
2022-12-18T07:02:45.715Z,-4.27887
2022-12-18T07:03:55.167Z,-4.299011
2022-12-18T07:05:07.576Z,-4.27887
2022-12-18T07:06:12.474Z,-4.248657
2022-12-18T07:07:22.167Z,-4.238586
2022-12-18T07:08:30.822Z,-4.238586
2022-12-18T07:09:39.534Z,-4.248657
2022-12-18T07:10:52.871Z,-4.27887
2022-12-18T07:11:58.916Z,-4.27887
2022-12-18T07:13:07.579Z,-4.339294
2022-12-18T07:14:16.244Z,-4.349365
2022-12-18T07:15:24.986Z,-4.379578
2022-12-18T07:16:34.698Z,-4.379578
2022-12-18T07:17:42.327Z,-4.40979
2022-12-18T07:18:52.239Z,-4.480286
2022-12-18T07:20:01.767Z,-4.490356
2022-12-18T07:21:10.470Z,-4.490356
2022-12-18T07:22:20.142Z,-4.480286
2022-12-18T07:23:28.817Z,-4.429932
2022-12-18T07:24:38.480Z,-4.40979
2022-12-18T07:25:48.220Z,-4.419861
2022-12-18T07:26:57.893Z,-4.389648
2022-12-18T07:28:08.851Z,-4.339294
2022-12-18T07:29:18.186Z,-4.309082
2022-12-18T07:30:25.858Z,-4.379578
2022-12-18T07:31:35.581Z,-4.419861
2022-12-18T07:32:43.246Z,-4.450073
2022-12-18T07:33:51.905Z,-4.419861
2022-12-18T07:35:01.706Z,-4.389648
2022-12-18T07:36:11.261Z,-4.40979
2022-12-18T07:37:20.963Z,-4.40979
2022-12-18T07:38:29.670Z,-4.450073
2022-12-18T07:39:37.326Z,-4.53064
2022-12-18T07:40:48.202Z,-4.591064
2022-12-18T07:41:55.946Z,-4.631348
2022-12-18T07:43:04.633Z,-4.641418
2022-12-18T07:44:14.338Z,-4.66156
2022-12-18T07:45:23.030Z,-4.641418
2022-12-18T07:46:31.739Z,-4.66156
2022-12-18T07:47:40.438Z,-4.641418
2022-12-18T07:48:49.671Z,-4.611206
2022-12-18T07:49:58.831Z,-4.641418
2022-12-18T07:51:06.621Z,-4.641418
2022-12-18T07:52:16.170Z,-4.631348
2022-12-18T07:53:26.808Z,-4.601135
2022-12-18T07:54:34.476Z,-4.591064
2022-12-18T07:56:05.750Z,-4.550781
2022-12-18T07:56:54.861Z,-4.570923
2022-12-18T07:58:04.557Z,-4.53064
2022-12-18T07:59:14.271Z,-4.631348
2022-12-18T08:00:21.979Z,-4.631348
2022-12-18T08:01:30.792Z,-4.611206
2022-12-18T08:02:40.452Z,-4.570923
2022-12-18T08:03:49.051Z,-4.591064
2022-12-18T08:04:58.705Z,-4.53064
2022-12-18T08:06:08.401Z,-4.500427
2022-12-18T08:07:16.216Z,-4.550781
2022-12-18T08:08:25.793Z,-4.550781
2022-12-18T08:09:34.477Z,-4.550781
2022-12-18T08:10:44.220Z,-4.570923
2022-12-18T08:11:53.901Z,-4.591064
2022-12-18T08:13:05.176Z,-4.601135
2022-12-18T08:14:13.252Z,-4.53064
2022-12-18T08:15:22.922Z,-4.500427
2022-12-18T08:16:31.674Z,-4.480286
2022-12-18T08:17:40.255Z,-4.520569
2022-12-18T08:18:49.451Z,-4.500427
2022-12-18T08:19:57.601Z,-4.450073
2022-12-18T08:21:06.276Z,-4.480286
2022-12-18T08:22:14.964Z,-4.419861
2022-12-18T08:23:27.577Z,-4.389648
2022-12-18T08:24:35.390Z,-4.339294
2022-12-18T08:25:44.066Z,-4.309082
2022-12-18T08:27:13.441Z,-4.27887
2022-12-18T08:28:04.392Z,-4.238586
2022-12-18T08:29:16.139Z,-4.238586
2022-12-18T08:30:22.797Z,-4.218445
2022-12-18T08:31:31.603Z,-4.168091
2022-12-18T08:32:41.152Z,-4.208374
2022-12-18T08:33:50.841Z,-4.248657
2022-12-18T08:34:59.512Z,-4.268799
2022-12-18T08:36:09.227Z,-4.218445
2022-12-18T08:37:17.881Z,-4.208374
2022-12-18T08:38:26.545Z,-4.198303
2022-12-18T08:39:36.344Z,-4.198303
2022-12-18T08:40:45.969Z,-4.208374
2022-12-18T08:41:55.652Z,-4.238586
2022-12-18T08:43:06.374Z,-4.268799
2022-12-18T08:44:15.074Z,-4.339294
2022-12-18T08:45:24.767Z,-4.389648
2022-12-18T08:46:34.518Z,-4.429932
2022-12-18T08:47:42.144Z,-4.40979
2022-12-18T08:48:51.869Z,-4.40979
2022-12-18T08:50:01.581Z,-4.339294
2022-12-18T08:51:10.260Z,-4.268799
2022-12-18T08:52:19.956Z,-4.248657
2022-12-18T08:53:32.755Z,-4.208374
2022-12-18T08:54:38.577Z,-4.248657
2022-12-18T08:55:50.285Z,-4.319153
2022-12-18T08:56:56.827Z,-4.389648
2022-12-18T08:58:06.517Z,-4.460144
2022-12-18T08:59:19.282Z,-4.460144
2022-12-18T09:00:22.865Z,-4.419861
2022-12-18T09:01:32.660Z,-4.419861
2022-12-18T09:02:40.274Z,-4.349365
2022-12-18T09:03:49.918Z,-4.27887
2022-12-18T09:04:59.622Z,-4.319153
2022-12-18T09:06:07.307Z,-4.40979
2022-12-18T09:07:16.977Z,-4.419861
2022-12-18T09:08:24.631Z,-4.429932
2022-12-18T09:09:33.307Z,-4.419861
2022-12-18T09:10:43.451Z,-4.460144
2022-12-18T09:11:50.696Z,-4.500427
2022-12-18T09:13:00.340Z,-4.480286
2022-12-18T09:14:09.005Z,-4.460144
2022-12-18T09:15:16.671Z,-4.591064
2022-12-18T09:16:31.584Z,-4.570923
2022-12-18T09:17:36.041Z,-4.591064
2022-12-18T09:18:44.719Z,-4.570923
2022-12-18T09:19:53.377Z,-4.591064
2022-12-18T09:21:01.045Z,-4.520569
2022-12-18T09:22:10.747Z,-4.500427
2022-12-18T09:23:19.408Z,-4.490356
2022-12-18T09:24:29.069Z,-4.460144
2022-12-18T09:25:38.736Z,-4.379578
2022-12-18T09:26:47.814Z,-4.268799
2022-12-18T09:27:58.096Z,-4.168091
2022-12-18T09:29:06.785Z,-4.097595
2022-12-18T09:30:16.549Z,-4.03717
2022-12-18T09:31:26.263Z,-4.017029
2022-12-18T09:32:33.916Z,-3.956604
2022-12-18T09:33:43.632Z,-3.926392
2022-12-18T09:34:53.310Z,-3.825684
2022-12-18T09:36:01.989Z,-3.765259
2022-12-18T09:37:11.707Z,-3.825684
2022-12-18T09:38:19.370Z,-3.825684
2022-12-18T09:39:28.087Z,-3.77533
2022-12-18T09:40:37.803Z,-3.77533
2022-12-18T09:41:46.510Z,-3.77533
2022-12-18T09:42:56.327Z,-3.77533
2022-12-18T09:44:05.942Z,-3.745117
2022-12-18T09:45:14.725Z,-3.745117
2022-12-18T09:46:24.461Z,-3.735046
2022-12-18T09:47:32.073Z,-3.876038
2022-12-18T09:48:40.091Z,-3.986816
2022-12-18T09:49:49.460Z,-4.0271
2022-12-18T09:50:58.123Z,-4.0271
2022-12-18T09:52:07.809Z,-4.0271
2022-12-18T09:53:17.504Z,-4.067383
2022-12-18T09:54:26.206Z,-4.15802
2022-12-18T09:55:37.307Z,-4.268799
2022-12-18T09:56:46.677Z,-4.27887
2022-12-18T09:57:55.420Z,-4.309082
2022-12-18T09:59:05.232Z,-4.27887
2022-12-18T10:00:14.778Z,-4.309082
2022-12-18T10:01:24.669Z,-4.208374
2022-12-18T10:02:34.250Z,-4.117737
2022-12-18T10:03:41.904Z,-4.137878
2022-12-18T10:04:51.690Z,-4.097595
2022-12-18T10:05:59.323Z,-4.097595
2022-12-18T10:07:09.373Z,-4.097595
2022-12-18T10:08:17.704Z,-4.0271
2022-12-18T10:09:26.411Z,-3.986816
2022-12-18T10:10:36.113Z,-3.976746
2022-12-18T10:11:45.802Z,-4.097595
2022-12-18T10:12:55.612Z,-4.057312
2022-12-18T10:14:05.210Z,-3.956604
2022-12-18T10:15:13.023Z,-3.876038
2022-12-18T10:16:21.668Z,-3.976746
2022-12-18T10:17:31.340Z,-4.017029
2022-12-18T10:18:39.267Z,-4.087524
2022-12-18T10:19:48.727Z,-4.087524
2022-12-18T10:20:59.387Z,-4.15802
2022-12-18T10:22:09.085Z,-4.248657
2022-12-18T10:23:18.766Z,-4.309082
2022-12-18T10:24:28.464Z,-4.389648
2022-12-18T10:25:38.236Z,-4.40979
2022-12-18T10:26:47.920Z,-4.309082
2022-12-18T10:27:56.588Z,-4.238586
2022-12-18T10:29:06.307Z,-4.319153
2022-12-18T10:30:15.059Z,-4.389648
2022-12-18T10:31:23.962Z,-4.319153
2022-12-18T10:32:33.501Z,-4.27887
2022-12-18T10:33:41.209Z,-4.339294
2022-12-18T10:34:52.067Z,-4.309082
2022-12-18T10:36:00.611Z,-4.299011
2022-12-18T10:37:09.338Z,-4.248657
2022-12-18T10:38:18.998Z,-4.218445
2022-12-18T10:39:28.696Z,-4.268799
2022-12-18T10:40:36.362Z,-4.339294
2022-12-18T10:41:46.118Z,-4.379578
2022-12-18T10:42:54.836Z,-4.349365
2022-12-18T10:44:03.503Z,-4.379578
2022-12-18T10:45:12.199Z,-4.429932
2022-12-18T10:46:21.968Z,-4.419861
2022-12-18T10:47:31.703Z,-4.429932
2022-12-18T10:48:42.865Z,-4.550781
2022-12-18T10:49:51.029Z,-4.520569
2022-12-18T10:51:10.674Z,-4.53064
2022-12-18T10:52:11.375Z,-4.570923
2022-12-18T10:53:20.154Z,-4.520569
2022-12-18T10:54:29.862Z,-4.450073
2022-12-18T10:55:38.527Z,-4.319153
2022-12-18T10:56:48.211Z,-4.238586
2022-12-18T10:57:56.891Z,-4.248657
2022-12-18T10:59:05.775Z,-4.309082
2022-12-18T11:00:15.415Z,-4.339294
2022-12-18T11:01:23.187Z,-4.319153
2022-12-18T11:02:32.967Z,-4.349365
2022-12-18T11:03:42.722Z,-4.27887
2022-12-18T11:04:51.147Z,-4.27887
2022-12-18T11:06:00.869Z,-4.238586
2022-12-18T11:07:10.561Z,-4.248657
2022-12-18T11:08:18.201Z,-4.268799
2022-12-18T11:09:27.877Z,-4.248657
2022-12-18T11:10:36.545Z,-4.248657
2022-12-18T11:11:45.292Z,-4.168091
2022-12-18T11:12:54.954Z,-4.057312
2022-12-18T11:14:04.612Z,-4.067383
2022-12-18T11:15:14.347Z,-4.067383
2022-12-18T11:16:24.087Z,-4.15802
2022-12-18T11:17:31.824Z,-4.097595
2022-12-18T11:18:41.824Z,-4.017029
2022-12-18T11:19:50.228Z,-3.976746
2022-12-18T11:20:59.787Z,-3.976746
2022-12-18T11:22:07.464Z,-3.926392
2022-12-18T11:23:17.168Z,-3.956604
2022-12-18T11:24:26.852Z,-4.127808
2022-12-18T11:25:36.658Z,-4.268799
2022-12-18T11:26:46.253Z,-4.389648
2022-12-18T11:27:55.923Z,-4.379578
2022-12-18T11:29:03.632Z,-4.339294
2022-12-18T11:30:13.306Z,-4.319153
2022-12-18T11:31:21.037Z,-4.248657
2022-12-18T11:32:29.700Z,-4.198303
2022-12-18T11:33:39.412Z,-4.127808
2022-12-18T11:34:52.516Z,-4.057312
2022-12-18T11:35:59.855Z,-3.946533
2022-12-18T11:37:09.424Z,-4.067383
2022-12-18T11:38:17.119Z,-4.057312
2022-12-18T11:39:26.803Z,-4.117737
2022-12-18T11:40:40.802Z,-4.15802
2022-12-18T11:41:44.341Z,-4.117737
2022-12-18T11:42:54.015Z,-4.067383
2022-12-18T11:44:02.700Z,-3.986816
2022-12-18T11:45:12.348Z,-4.0271
2022-12-18T11:46:21.086Z,-4.0271
2022-12-18T11:47:29.730Z,-4.017029
2022-12-18T11:48:39.795Z,-3.976746
2022-12-18T11:49:47.096Z,-3.916321
2022-12-18T11:50:55.755Z,-3.845825
2022-12-18T11:52:05.612Z,-3.735046
2022-12-18T11:53:13.181Z,-3.634338
2022-12-18T11:54:22.894Z,-3.563843
2022-12-18T11:55:31.576Z,-3.553772
2022-12-18T11:56:41.268Z,-3.614197
2022-12-18T11:57:51.004Z,-3.614197
2022-12-18T11:58:58.678Z,-3.553772
2022-12-18T12:00:07.955Z,-3.52356
2022-12-18T12:01:17.755Z,-3.543701
2022-12-18T12:02:26.448Z,-3.493347
2022-12-18T12:03:36.025Z,-3.442993
2022-12-18T12:04:44.683Z,-3.372498
2022-12-18T12:05:52.359Z,-3.463135
2022-12-18T12:07:03.384Z,-3.513489
2022-12-18T12:08:11.902Z,-3.553772
2022-12-18T12:09:20.567Z,-3.493347
2022-12-18T12:10:30.235Z,-3.493347
2022-12-18T12:11:37.955Z,-3.442993
2022-12-18T12:12:48.843Z,-3.463135
2022-12-18T12:13:57.334Z,-3.594055
2022-12-18T12:15:06.040Z,-3.704834
2022-12-18T12:16:15.806Z,-3.644409
2022-12-18T12:17:25.412Z,-3.563843
2022-12-18T12:18:34.098Z,-3.644409
2022-12-18T12:19:43.767Z,-3.795471
2022-12-18T12:20:52.505Z,-3.815613
2022-12-18T12:22:02.197Z,-3.77533
2022-12-18T12:23:10.858Z,-3.765259
2022-12-18T12:24:21.737Z,-3.724976
2022-12-18T12:25:30.361Z,-3.704834
2022-12-18T12:26:38.137Z,-3.77533
2022-12-18T12:27:47.827Z,-3.815613
2022-12-18T12:28:57.539Z,-3.845825
2022-12-18T12:30:06.232Z,-3.825684
2022-12-18T12:31:15.917Z,-3.745117
2022-12-18T12:32:25.642Z,-3.704834
2022-12-18T12:33:34.322Z,-3.674622
2022-12-18T12:34:44.020Z,-3.594055
2022-12-18T12:35:53.680Z,-3.614197
2022-12-18T12:37:03.391Z,-3.634338
2022-12-18T12:38:13.086Z,-3.674622
2022-12-18T12:39:22.753Z,-3.77533
2022-12-18T12:41:43.080Z,-3.724976
2022-12-18T12:42:51.806Z,-3.614197
2022-12-18T12:44:01.500Z,-3.563843
2022-12-18T12:45:09.142Z,-3.493347
2022-12-18T12:46:18.803Z,-3.453064
2022-12-18T12:47:28.474Z,-3.412781
2022-12-18T12:48:37.131Z,-3.40271
2022-12-18T12:49:46.807Z,-3.352356
2022-12-18T12:50:55.488Z,-3.342285
2022-12-18T12:52:05.166Z,-3.28186
2022-12-18T12:53:14.983Z,-3.312073
2022-12-18T12:54:23.636Z,-3.28186
2022-12-18T12:55:32.353Z,-3.251648
2022-12-18T12:56:42.159Z,-3.221436
2022-12-18T12:57:50.708Z,-3.231506
2022-12-18T12:59:00.376Z,-3.251648
2022-12-18T13:00:10.099Z,-3.251648
2022-12-18T13:01:23.234Z,-3.231506
2022-12-18T13:02:28.501Z,-3.201294
2022-12-18T13:03:37.149Z,-3.191223
2022-12-18T13:04:45.836Z,-3.201294
2022-12-18T13:05:54.516Z,-3.171082
2022-12-18T13:07:03.232Z,-3.15094
2022-12-18T13:08:12.907Z,-3.130798
2022-12-18T13:09:23.564Z,-3.120728
2022-12-18T13:10:33.224Z,-3.070374
2022-12-18T13:11:42.891Z,-3.060303
2022-12-18T13:12:51.694Z,-3.070374